sensor_id;sensor_type;location;lat;lon;timestamp;noise_LAeq;noise_LA_min;noise_LA_max;noise_LA01;noise_LA95
72276;Laerm;61204;49.980;8.358;2023-02-18T00:00:22;50.76;42.52;65.76;;
72276;Laerm;61204;49.980;8.358;2023-02-18T00:02:48;53.02;42.56;70.19;;
72276;Laerm;61204;49.980;8.358;2023-02-18T00:05:14;51.36;41.45;66.80;;
72276;Laerm;61204;49.980;8.358;2023-02-18T00:07:40;50.72;43.84;65.02;;
72276;Laerm;61204;49.980;8.358;2023-02-18T00:10:11;48.22;41.64;56.83;;
72276;Laerm;61204;49.980;8.358;2023-02-18T00:12:37;48.56;41.81;55.68;;
72276;Laerm;61204;49.980;8.358;2023-02-18T00:15:03;47.90;41.23;60.70;;
72276;Laerm;61204;49.980;8.358;2023-02-18T00:17:29;49.74;43.09;60.38;;
72276;Laerm;61204;49.980;8.358;2023-02-18T00:19:55;49.71;43.24;67.95;;
72276;Laerm;61204;49.980;8.358;2023-02-18T00:22:23;51.03;42.13;63.74;;
72276;Laerm;61204;49.980;8.358;2023-02-18T00:24:50;50.44;43.21;64.84;;
72276;Laerm;61204;49.980;8.358;2023-02-18T00:27:16;47.68;40.95;56.75;;
72276;Laerm;61204;49.980;8.358;2023-02-18T00:29:41;50.43;44.58;63.86;;
72276;Laerm;61204;49.980;8.358;2023-02-18T00:32:07;53.22;42.21;72.94;;
72276;Laerm;61204;49.980;8.358;2023-02-18T00:34:32;50.62;42.59;70.21;;
72276;Laerm;61204;49.980;8.358;2023-02-18T00:37:00;52.66;40.68;73.88;;
72276;Laerm;61204;49.980;8.358;2023-02-18T00:39:26;47.62;41.58;55.51;;
72276;Laerm;61204;49.980;8.358;2023-02-18T00:41:51;48.13;43.15;57.99;;
72276;Laerm;61204;49.980;8.358;2023-02-18T00:44:17;47.93;42.24;60.02;;
72276;Laerm;61204;49.980;8.358;2023-02-18T00:46:43;50.91;42.31;67.66;;
72276;Laerm;61204;49.980;8.358;2023-02-18T00:49:11;50.44;41.94;64.44;;
72276;Laerm;61204;49.980;8.358;2023-02-18T00:51:36;51.13;44.66;67.61;;
72276;Laerm;61204;49.980;8.358;2023-02-18T00:54:02;47.89;42.26;60.66;;
72276;Laerm;61204;49.980;8.358;2023-02-18T00:56:28;49.01;43.93;64.05;;
72276;Laerm;61204;49.980;8.358;2023-02-18T00:58:53;49.04;44.49;56.60;;
72276;Laerm;61204;49.980;8.358;2023-02-18T01:01:20;49.92;44.13;61.55;;
72276;Laerm;61204;49.980;8.358;2023-02-18T01:03:45;48.92;43.11;58.37;;
72276;Laerm;61204;49.980;8.358;2023-02-18T01:06:12;51.65;44.29;71.18;;
72276;Laerm;61204;49.980;8.358;2023-02-18T01:08:39;50.09;44.63;66.04;;
72276;Laerm;61204;49.980;8.358;2023-02-18T01:11:07;47.11;40.68;56.97;;
72276;Laerm;61204;49.980;8.358;2023-02-18T01:13:33;49.08;43.63;58.63;;
72276;Laerm;61204;49.980;8.358;2023-02-18T01:15:58;47.44;40.92;56.88;;
72276;Laerm;61204;49.980;8.358;2023-02-18T01:18:26;53.56;43.64;68.60;;
72276;Laerm;61204;49.980;8.358;2023-02-18T01:20:52;48.89;43.21;59.09;;
72276;Laerm;61204;49.980;8.358;2023-02-18T01:23:18;48.47;41.23;59.91;;
72276;Laerm;61204;49.980;8.358;2023-02-18T01:25:44;48.61;42.08;63.99;;
72276;Laerm;61204;49.980;8.358;2023-02-18T01:28:13;56.46;43.89;79.37;;
72276;Laerm;61204;49.980;8.358;2023-02-18T01:30:40;50.33;42.96;65.15;;
72276;Laerm;61204;49.980;8.358;2023-02-18T01:33:06;50.50;43.07;66.14;;
72276;Laerm;61204;49.980;8.358;2023-02-18T01:35:33;47.11;41.89;55.91;;
72276;Laerm;61204;49.980;8.358;2023-02-18T01:37:58;48.74;40.13;63.12;;
72276;Laerm;61204;49.980;8.358;2023-02-18T01:40:28;49.48;42.29;59.41;;
72276;Laerm;61204;49.980;8.358;2023-02-18T01:42:54;48.15;40.77;62.93;;
72276;Laerm;61204;49.980;8.358;2023-02-18T01:48:12;48.57;42.20;62.08;;
72276;Laerm;61204;49.980;8.358;2023-02-18T01:50:46;49.66;42.15;67.71;;
72276;Laerm;61204;49.980;8.358;2023-02-18T01:53:19;54.14;43.52;72.29;;
72276;Laerm;61204;49.980;8.358;2023-02-18T01:55:47;49.69;42.08;61.60;;
72276;Laerm;61204;49.980;8.358;2023-02-18T01:58:14;50.74;41.58;68.29;;
72276;Laerm;61204;49.980;8.358;2023-02-18T02:00:40;49.16;43.09;63.03;;
72276;Laerm;61204;49.980;8.358;2023-02-18T02:03:06;47.65;42.16;59.04;;
72276;Laerm;61204;49.980;8.358;2023-02-18T02:05:35;47.96;41.50;59.34;;
72276;Laerm;61204;49.980;8.358;2023-02-18T02:08:04;48.42;41.65;59.38;;
72276;Laerm;61204;49.980;8.358;2023-02-18T02:13:58;48.48;40.04;62.99;;
72276;Laerm;61204;49.980;8.358;2023-02-18T02:16:41;48.31;38.98;65.35;;
72276;Laerm;61204;49.980;8.358;2023-02-18T02:20:25;48.48;39.19;62.66;;
72276;Laerm;61204;49.980;8.358;2023-02-18T02:29:23;48.76;41.38;58.73;;
72276;Laerm;61204;49.980;8.358;2023-02-18T02:35:09;48.42;40.17;62.31;;
72276;Laerm;61204;49.980;8.358;2023-02-18T02:38:13;48.61;41.42;66.83;;
72276;Laerm;61204;49.980;8.358;2023-02-18T02:44:17;49.50;43.16;63.00;;
72276;Laerm;61204;49.980;8.358;2023-02-18T02:46:51;47.35;41.47;58.65;;
72276;Laerm;61204;49.980;8.358;2023-02-18T02:49:48;51.24;41.83;66.32;;
72276;Laerm;61204;49.980;8.358;2023-02-18T02:52:27;48.80;41.04;62.34;;
72276;Laerm;61204;49.980;8.358;2023-02-18T02:54:55;47.51;39.41;58.41;;
72276;Laerm;61204;49.980;8.358;2023-02-18T02:59:55;49.78;44.28;60.21;;
72276;Laerm;61204;49.980;8.358;2023-02-18T03:02:45;50.87;45.03;62.18;;
72276;Laerm;61204;49.980;8.358;2023-02-18T03:08:54;48.13;39.81;62.79;;
72276;Laerm;61204;49.980;8.358;2023-02-18T03:11:31;45.18;38.62;57.24;;
72276;Laerm;61204;49.980;8.358;2023-02-18T03:17:02;48.73;42.16;60.41;;
72276;Laerm;61204;49.980;8.358;2023-02-18T03:19:43;52.27;43.51;67.08;;
72276;Laerm;61204;49.980;8.358;2023-02-18T03:22:17;47.35;41.22;54.59;;
72276;Laerm;61204;49.980;8.358;2023-02-18T03:24:50;46.30;40.16;56.27;;
72276;Laerm;61204;49.980;8.358;2023-02-18T03:27:30;48.13;42.71;61.28;;
72276;Laerm;61204;49.980;8.358;2023-02-18T03:32:40;47.02;41.98;53.42;;
72276;Laerm;61204;49.980;8.358;2023-02-18T03:35:12;48.89;43.21;59.70;;
72276;Laerm;61204;49.980;8.358;2023-02-18T03:37:47;47.39;41.67;55.44;;
72276;Laerm;61204;49.980;8.358;2023-02-18T03:40:17;47.64;42.06;58.66;;
72276;Laerm;61204;49.980;8.358;2023-02-18T03:42:43;48.55;43.85;64.82;;
72276;Laerm;61204;49.980;8.358;2023-02-18T03:45:11;49.24;43.73;63.44;;
72276;Laerm;61204;49.980;8.358;2023-02-18T03:47:38;49.28;43.07;59.37;;
72276;Laerm;61204;49.980;8.358;2023-02-18T03:50:05;48.31;41.98;64.84;;
72276;Laerm;61204;49.980;8.358;2023-02-18T03:52:30;48.32;43.06;67.41;;
72276;Laerm;61204;49.980;8.358;2023-02-18T03:54:56;49.00;41.70;60.06;;
72276;Laerm;61204;49.980;8.358;2023-02-18T03:57:21;48.58;41.42;64.22;;
72276;Laerm;61204;49.980;8.358;2023-02-18T03:59:46;47.97;42.84;59.15;;
72276;Laerm;61204;49.980;8.358;2023-02-18T04:02:14;49.76;44.04;67.95;;
72276;Laerm;61204;49.980;8.358;2023-02-18T04:04:40;49.47;43.20;56.45;;
72276;Laerm;61204;49.980;8.358;2023-02-18T04:07:05;49.52;43.78;64.51;;
72276;Laerm;61204;49.980;8.358;2023-02-18T04:09:30;53.29;45.31;69.10;;
72276;Laerm;61204;49.980;8.358;2023-02-18T04:11:56;49.84;42.33;63.85;;
72276;Laerm;61204;49.980;8.358;2023-02-18T04:14:21;48.99;41.42;60.37;;
72276;Laerm;61204;49.980;8.358;2023-02-18T04:16:47;49.14;43.23;67.98;;
72276;Laerm;61204;49.980;8.358;2023-02-18T04:19:12;49.95;43.30;60.39;;
72276;Laerm;61204;49.980;8.358;2023-02-18T04:21:37;50.81;43.47;67.12;;
72276;Laerm;61204;49.980;8.358;2023-02-18T04:24:03;49.44;43.67;56.46;;
72276;Laerm;61204;49.980;8.358;2023-02-18T04:26:29;49.20;45.11;56.57;;
72276;Laerm;61204;49.980;8.358;2023-02-18T04:28:54;49.68;43.70;56.92;;
72276;Laerm;61204;49.980;8.358;2023-02-18T04:31:20;51.21;45.56;63.39;;
72276;Laerm;61204;49.980;8.358;2023-02-18T04:33:45;51.73;45.90;64.41;;
72276;Laerm;61204;49.980;8.358;2023-02-18T04:36:11;51.85;46.71;61.49;;
72276;Laerm;61204;49.980;8.358;2023-02-18T04:38:38;51.86;44.31;70.80;;
72276;Laerm;61204;49.980;8.358;2023-02-18T04:41:06;51.88;45.54;65.28;;
72276;Laerm;61204;49.980;8.358;2023-02-18T04:43:31;54.11;43.84;71.05;;
72276;Laerm;61204;49.980;8.358;2023-02-18T04:45:57;51.90;46.32;60.55;;
72276;Laerm;61204;49.980;8.358;2023-02-18T04:48:22;50.72;45.10;61.25;;
72276;Laerm;61204;49.980;8.358;2023-02-18T04:50:48;50.08;42.20;61.62;;
72276;Laerm;61204;49.980;8.358;2023-02-18T04:53:15;49.67;43.37;60.53;;
72276;Laerm;61204;49.980;8.358;2023-02-18T04:55:41;50.54;45.22;62.03;;
72276;Laerm;61204;49.980;8.358;2023-02-18T04:58:08;48.76;43.05;60.75;;
72276;Laerm;61204;49.980;8.358;2023-02-18T05:00:34;49.08;43.44;62.64;;
72276;Laerm;61204;49.980;8.358;2023-02-18T05:03:00;49.61;44.34;63.77;;
72276;Laerm;61204;49.980;8.358;2023-02-18T05:05:25;51.56;45.21;60.07;;
72276;Laerm;61204;49.980;8.358;2023-02-18T05:07:53;50.95;45.26;62.37;;
72276;Laerm;61204;49.980;8.358;2023-02-18T05:10:19;52.69;46.96;64.91;;
72276;Laerm;61204;49.980;8.358;2023-02-18T05:12:44;51.58;45.89;60.24;;
72276;Laerm;61204;49.980;8.358;2023-02-18T05:15:13;51.10;45.15;62.24;;
72276;Laerm;61204;49.980;8.358;2023-02-18T05:17:42;51.26;45.76;61.55;;
72276;Laerm;61204;49.980;8.358;2023-02-18T05:20:08;49.05;44.05;60.25;;
72276;Laerm;61204;49.980;8.358;2023-02-18T05:22:33;51.52;46.36;63.85;;
72276;Laerm;61204;49.980;8.358;2023-02-18T05:24:59;52.23;46.32;62.60;;
72276;Laerm;61204;49.980;8.358;2023-02-18T05:27:24;49.51;44.36;56.59;;
72276;Laerm;61204;49.980;8.358;2023-02-18T05:29:52;51.29;46.40;61.87;;
72276;Laerm;61204;49.980;8.358;2023-02-18T05:32:17;52.40;47.55;59.73;;
72276;Laerm;61204;49.980;8.358;2023-02-18T05:34:43;52.67;47.59;61.31;;
72276;Laerm;61204;49.980;8.358;2023-02-18T05:37:10;53.55;48.11;61.51;;
72276;Laerm;61204;49.980;8.358;2023-02-18T05:39:37;52.02;46.64;60.70;;
72276;Laerm;61204;49.980;8.358;2023-02-18T05:42:03;53.00;48.38;60.96;;
72276;Laerm;61204;49.980;8.358;2023-02-18T05:44:28;54.16;48.47;65.31;;
72276;Laerm;61204;49.980;8.358;2023-02-18T05:46:59;55.28;47.56;74.21;;
72276;Laerm;61204;49.980;8.358;2023-02-18T05:49:27;55.32;48.08;70.73;;
72276;Laerm;61204;49.980;8.358;2023-02-18T05:51:52;55.54;46.84;73.63;;
72276;Laerm;61204;49.980;8.358;2023-02-18T05:54:18;56.44;46.33;72.74;;
72276;Laerm;61204;49.980;8.358;2023-02-18T05:56:43;59.18;48.64;80.29;;
72276;Laerm;61204;49.980;8.358;2023-02-18T05:59:09;60.88;46.92;75.70;;
72276;Laerm;61204;49.980;8.358;2023-02-18T06:01:34;58.28;48.06;72.88;;
72276;Laerm;61204;49.980;8.358;2023-02-18T06:04:00;59.33;49.58;77.88;;
72276;Laerm;61204;49.980;8.358;2023-02-18T06:06:25;56.10;47.25;77.95;;
72276;Laerm;61204;49.980;8.358;2023-02-18T06:08:51;58.18;47.64;79.05;;
72276;Laerm;61204;49.980;8.358;2023-02-18T06:11:16;58.53;48.43;75.61;;
72276;Laerm;61204;49.980;8.358;2023-02-18T06:13:44;61.74;48.24;85.79;;
72276;Laerm;61204;49.980;8.358;2023-02-18T06:16:10;63.51;49.56;83.41;;
72276;Laerm;61204;49.980;8.358;2023-02-18T06:18:35;61.27;47.63;77.23;;
72276;Laerm;61204;49.980;8.358;2023-02-18T06:21:01;58.52;48.74;76.71;;
72276;Laerm;61204;49.980;8.358;2023-02-18T06:23:26;58.44;49.13;77.14;;
72276;Laerm;61204;49.980;8.358;2023-02-18T06:25:52;59.99;48.99;78.05;;
72276;Laerm;61204;49.980;8.358;2023-02-18T06:28:17;57.17;47.93;79.21;;
72276;Laerm;61204;49.980;8.358;2023-02-18T06:30:45;53.96;47.54;64.54;;
72276;Laerm;61204;49.980;8.358;2023-02-18T06:33:10;56.47;48.01;73.70;;
72276;Laerm;61204;49.980;8.358;2023-02-18T06:35:36;59.02;47.68;83.37;;
72276;Laerm;61204;49.980;8.358;2023-02-18T06:38:02;56.35;48.84;70.63;;
72276;Laerm;61204;49.980;8.358;2023-02-18T06:40:27;54.92;48.37;69.44;;
72276;Laerm;61204;49.980;8.358;2023-02-18T06:42:53;55.87;47.71;69.77;;
72276;Laerm;61204;49.980;8.358;2023-02-18T06:45:19;59.66;48.87;76.08;;
72276;Laerm;61204;49.980;8.358;2023-02-18T06:47:44;57.19;49.55;75.97;;
72276;Laerm;61204;49.980;8.358;2023-02-18T06:50:10;63.45;48.31;85.17;;
72276;Laerm;61204;49.980;8.358;2023-02-18T06:52:35;56.69;48.56;74.61;;
72276;Laerm;61204;49.980;8.358;2023-02-18T06:55:05;57.46;48.11;77.02;;
72276;Laerm;61204;49.980;8.358;2023-02-18T06:57:30;55.75;48.37;70.09;;
72276;Laerm;61204;49.980;8.358;2023-02-18T06:59:56;57.29;47.00;74.26;;
72276;Laerm;61204;49.980;8.358;2023-02-18T07:02:21;57.77;48.99;78.89;;
72276;Laerm;61204;49.980;8.358;2023-02-18T07:04:47;54.58;48.76;70.50;;
72276;Laerm;61204;49.980;8.358;2023-02-18T07:07:13;56.07;48.21;71.40;;
72276;Laerm;61204;49.980;8.358;2023-02-18T07:09:38;57.86;48.93;76.56;;
72276;Laerm;61204;49.980;8.358;2023-02-18T07:12:06;58.08;48.61;74.38;;
72276;Laerm;61204;49.980;8.358;2023-02-18T07:14:31;61.53;49.22;84.46;;
72276;Laerm;61204;49.980;8.358;2023-02-18T07:16:57;57.74;49.83;74.82;;
72276;Laerm;61204;49.980;8.358;2023-02-18T07:19:25;64.36;47.39;85.93;;
72276;Laerm;61204;49.980;8.358;2023-02-18T07:21:53;61.88;48.85;82.93;;
72276;Laerm;61204;49.980;8.358;2023-02-18T07:24:22;56.22;47.42;75.40;;
72276;Laerm;61204;49.980;8.358;2023-02-18T07:26:48;56.04;48.73;74.55;;
72276;Laerm;61204;49.980;8.358;2023-02-18T07:29:13;57.32;48.97;76.95;;
72276;Laerm;61204;49.980;8.358;2023-02-18T07:31:39;53.61;47.93;70.68;;
72276;Laerm;61204;49.980;8.358;2023-02-18T07:34:04;53.32;46.46;65.95;;
72276;Laerm;61204;49.980;8.358;2023-02-18T07:36:29;55.85;48.76;76.45;;
72276;Laerm;61204;49.980;8.358;2023-02-18T07:38:55;57.08;49.11;74.66;;
72276;Laerm;61204;49.980;8.358;2023-02-18T07:41:22;54.59;48.56;68.30;;
72276;Laerm;61204;49.980;8.358;2023-02-18T07:43:48;58.34;49.04;82.40;;
72276;Laerm;61204;49.980;8.358;2023-02-18T07:46:14;54.42;47.35;70.69;;
72276;Laerm;61204;49.980;8.358;2023-02-18T07:48:39;55.71;47.86;69.85;;
72276;Laerm;61204;49.980;8.358;2023-02-18T07:51:08;54.76;48.57;65.66;;
72276;Laerm;61204;49.980;8.358;2023-02-18T07:53:34;56.69;48.56;77.23;;
72276;Laerm;61204;49.980;8.358;2023-02-18T07:56:03;54.89;49.26;77.15;;
72276;Laerm;61204;49.980;8.358;2023-02-18T07:58:34;54.18;47.17;64.62;;
72276;Laerm;61204;49.980;8.358;2023-02-18T08:01:04;53.01;48.39;66.24;;
72276;Laerm;61204;49.980;8.358;2023-02-18T08:03:31;55.51;49.05;71.76;;
72276;Laerm;61204;49.980;8.358;2023-02-18T08:05:57;55.79;48.87;69.49;;
72276;Laerm;61204;49.980;8.358;2023-02-18T08:08:29;60.10;49.31;80.86;;
72276;Laerm;61204;49.980;8.358;2023-02-18T08:10:59;62.97;51.82;82.47;;
72276;Laerm;61204;49.980;8.358;2023-02-18T08:13:27;56.03;49.24;74.91;;
72276;Laerm;61204;49.980;8.358;2023-02-18T08:15:56;55.26;47.48;71.14;;
72276;Laerm;61204;49.980;8.358;2023-02-18T08:18:24;54.88;49.64;69.43;;
72276;Laerm;61204;49.980;8.358;2023-02-18T08:20:51;58.59;48.98;80.45;;
72276;Laerm;61204;49.980;8.358;2023-02-18T08:23:19;57.24;50.58;74.43;;
72276;Laerm;61204;49.980;8.358;2023-02-18T08:25:53;60.98;49.22;81.19;;
72276;Laerm;61204;49.980;8.358;2023-02-18T08:28:22;56.13;49.99;70.55;;
72276;Laerm;61204;49.980;8.358;2023-02-18T08:30:52;56.45;50.39;72.51;;
72276;Laerm;61204;49.980;8.358;2023-02-18T08:33:19;57.77;50.30;73.90;;
72276;Laerm;61204;49.980;8.358;2023-02-18T08:35:49;59.78;48.18;82.78;;
72276;Laerm;61204;49.980;8.358;2023-02-18T08:38:15;57.80;50.58;74.01;;
72276;Laerm;61204;49.980;8.358;2023-02-18T08:40:40;58.93;48.92;76.83;;
72276;Laerm;61204;49.980;8.358;2023-02-18T08:43:07;58.59;51.01;73.42;;
72276;Laerm;61204;49.980;8.358;2023-02-18T08:45:37;61.08;51.11;85.63;;
72276;Laerm;61204;49.980;8.358;2023-02-18T08:48:07;60.11;51.39;75.95;;
72276;Laerm;61204;49.980;8.358;2023-02-18T08:50:33;60.00;50.39;82.91;;
72276;Laerm;61204;49.980;8.358;2023-02-18T08:52:59;58.32;50.40;82.35;;
72276;Laerm;61204;49.980;8.358;2023-02-18T08:55:32;58.23;50.70;72.51;;
72276;Laerm;61204;49.980;8.358;2023-02-18T08:57:57;60.35;50.07;78.86;;
72276;Laerm;61204;49.980;8.358;2023-02-18T09:00:23;56.97;51.60;70.96;;
72276;Laerm;61204;49.980;8.358;2023-02-18T09:02:50;60.18;51.25;75.71;;
72276;Laerm;61204;49.980;8.358;2023-02-18T09:05:16;62.69;51.34;80.16;;
72276;Laerm;61204;49.980;8.358;2023-02-18T09:07:42;57.81;50.46;78.46;;
72276;Laerm;61204;49.980;8.358;2023-02-18T09:10:09;58.05;49.78;75.67;;
72276;Laerm;61204;49.980;8.358;2023-02-18T09:12:35;59.78;50.94;74.98;;
72276;Laerm;61204;49.980;8.358;2023-02-18T09:15:01;64.35;51.11;82.41;;
72276;Laerm;61204;49.980;8.358;2023-02-18T09:17:27;58.63;50.46;81.69;;
72276;Laerm;61204;49.980;8.358;2023-02-18T09:19:53;64.26;50.43;87.17;;
72276;Laerm;61204;49.980;8.358;2023-02-18T09:22:19;60.29;50.18;76.79;;
72276;Laerm;61204;49.980;8.358;2023-02-18T09:24:44;61.68;50.55;81.42;;
72276;Laerm;61204;49.980;8.358;2023-02-18T09:27:13;59.22;52.19;76.01;;
72276;Laerm;61204;49.980;8.358;2023-02-18T09:29:41;57.20;51.56;78.83;;
72276;Laerm;61204;49.980;8.358;2023-02-18T09:32:08;59.27;49.84;77.52;;
72276;Laerm;61204;49.980;8.358;2023-02-18T09:34:34;60.12;50.28;76.31;;
72276;Laerm;61204;49.980;8.358;2023-02-18T09:37:01;61.27;50.55;81.80;;
72276;Laerm;61204;49.980;8.358;2023-02-18T09:39:26;64.94;51.76;82.98;;
72276;Laerm;61204;49.980;8.358;2023-02-18T09:41:58;57.01;49.57;71.54;;
72276;Laerm;61204;49.980;8.358;2023-02-18T09:44:48;58.05;51.08;76.66;;
72276;Laerm;61204;49.980;8.358;2023-02-18T09:47:40;63.76;49.91;85.73;;
72276;Laerm;61204;49.980;8.358;2023-02-18T09:50:18;58.61;51.24;74.34;;
72276;Laerm;61204;49.980;8.358;2023-02-18T09:52:45;57.68;49.96;70.44;;
72276;Laerm;61204;49.980;8.358;2023-02-18T09:55:38;58.20;49.88;73.00;;
72276;Laerm;61204;49.980;8.358;2023-02-18T09:58:18;55.67;49.15;71.06;;
72276;Laerm;61204;49.980;8.358;2023-02-18T10:00:51;55.92;51.24;66.75;;
72276;Laerm;61204;49.980;8.358;2023-02-18T10:03:24;58.38;50.89;80.38;;
72276;Laerm;61204;49.980;8.358;2023-02-18T10:06:02;59.10;49.69;77.66;;
72276;Laerm;61204;49.980;8.358;2023-02-18T10:08:35;58.84;50.15;81.67;;
72276;Laerm;61204;49.980;8.358;2023-02-18T10:11:03;54.91;49.19;66.19;;
72276;Laerm;61204;49.980;8.358;2023-02-18T10:13:37;64.72;48.39;85.95;;
72276;Laerm;61204;49.980;8.358;2023-02-18T10:16:04;57.26;49.07;72.21;;
72276;Laerm;61204;49.980;8.358;2023-02-18T10:18:34;56.93;49.86;72.06;;
72276;Laerm;61204;49.980;8.358;2023-02-18T10:21:15;58.29;50.15;78.85;;
72276;Laerm;61204;49.980;8.358;2023-02-18T10:23:59;61.72;49.34;83.17;;
72276;Laerm;61204;49.980;8.358;2023-02-18T10:26:28;60.57;50.96;80.69;;
72276;Laerm;61204;49.980;8.358;2023-02-18T10:28:54;66.47;51.12;87.88;;
72276;Laerm;61204;49.980;8.358;2023-02-18T10:31:36;61.53;51.19;79.99;;
72276;Laerm;61204;49.980;8.358;2023-02-18T10:34:42;64.05;51.50;84.64;;
72276;Laerm;61204;49.980;8.358;2023-02-18T10:42:52;59.64;51.08;79.08;;
72276;Laerm;61204;49.980;8.358;2023-02-18T10:45:41;66.51;51.29;87.32;;
72276;Laerm;61204;49.980;8.358;2023-02-18T10:50:52;70.92;51.31;90.00;;
72276;Laerm;61204;49.980;8.358;2023-02-18T10:55:57;59.60;52.39;75.43;;
72276;Laerm;61204;49.980;8.358;2023-02-18T10:58:29;66.01;49.07;84.60;;
72276;Laerm;61204;49.980;8.358;2023-02-18T11:01:03;66.95;49.83;83.52;;
72276;Laerm;61204;49.980;8.358;2023-02-18T11:06:43;60.10;51.82;76.06;;
72276;Laerm;61204;49.980;8.358;2023-02-18T11:09:41;67.78;52.16;89.01;;
72276;Laerm;61204;49.980;8.358;2023-02-18T11:12:55;60.06;50.60;80.37;;
72276;Laerm;61204;49.980;8.358;2023-02-18T11:15:25;60.80;49.62;79.41;;
72276;Laerm;61204;49.980;8.358;2023-02-18T11:17:54;55.98;49.96;72.11;;
72276;Laerm;61204;49.980;8.358;2023-02-18T11:22:49;55.69;49.53;66.86;;
72276;Laerm;61204;49.980;8.358;2023-02-18T11:27:50;57.50;49.69;71.16;;
72276;Laerm;61204;49.980;8.358;2023-02-18T11:33:02;60.45;50.61;78.08;;
72276;Laerm;61204;49.980;8.358;2023-02-18T11:35:32;57.70;50.91;75.75;;
72276;Laerm;61204;49.980;8.358;2023-02-18T11:38:02;58.19;49.76;76.94;;
72276;Laerm;61204;49.980;8.358;2023-02-18T11:40:35;60.22;50.88;80.19;;
72276;Laerm;61204;49.980;8.358;2023-02-18T11:43:14;58.96;51.17;74.86;;
72276;Laerm;61204;49.980;8.358;2023-02-18T11:45:41;56.51;50.61;74.66;;
72276;Laerm;61204;49.980;8.358;2023-02-18T11:48:22;60.23;51.52;82.93;;
72276;Laerm;61204;49.980;8.358;2023-02-18T11:50:52;61.03;51.62;92.53;;
72276;Laerm;61204;49.980;8.358;2023-02-18T11:53:30;62.47;50.87;86.08;;
72276;Laerm;61204;49.980;8.358;2023-02-18T11:56:03;62.09;51.66;80.79;;
72276;Laerm;61204;49.980;8.358;2023-02-18T11:58:43;59.54;52.97;73.73;;
72276;Laerm;61204;49.980;8.358;2023-02-18T12:01:26;68.12;53.20;85.35;;
72276;Laerm;61204;49.980;8.358;2023-02-18T12:04:00;67.83;50.65;89.14;;
72276;Laerm;61204;49.980;8.358;2023-02-18T12:06:38;71.09;52.46;93.61;;
72276;Laerm;61204;49.980;8.358;2023-02-18T12:09:19;67.47;52.40;90.23;;
72276;Laerm;61204;49.980;8.358;2023-02-18T12:11:57;70.14;53.40;88.16;;
72276;Laerm;61204;49.980;8.358;2023-02-18T12:14:23;65.70;51.40;83.26;;
72276;Laerm;61204;49.980;8.358;2023-02-18T12:48:14;60.01;51.37;82.34;;
72276;Laerm;61204;49.980;8.358;2023-02-18T12:57:35;57.63;49.56;75.43;;
72276;Laerm;61204;49.980;8.358;2023-02-18T13:12:11;58.26;51.19;76.49;;
72276;Laerm;61204;49.980;8.358;2023-02-18T13:14:52;64.74;51.58;82.44;;
72276;Laerm;61204;49.980;8.358;2023-02-18T13:17:28;64.98;52.20;85.11;;
72276;Laerm;61204;49.980;8.358;2023-02-18T13:20:03;60.50;50.88;80.86;;
72276;Laerm;61204;49.980;8.358;2023-02-18T13:22:30;59.60;51.63;75.31;;
72276;Laerm;61204;49.980;8.358;2023-02-18T13:24:57;65.43;52.49;86.97;;
72276;Laerm;61204;49.980;8.358;2023-02-18T13:36:49;63.06;50.56;85.86;;
72276;Laerm;61204;49.980;8.358;2023-02-18T13:39:21;58.58;51.56;78.37;;
72276;Laerm;61204;49.980;8.358;2023-02-18T13:41:51;57.10;50.89;69.79;;
72276;Laerm;61204;49.980;8.358;2023-02-18T13:45:03;62.64;49.17;86.33;;
72276;Laerm;61204;49.980;8.358;2023-02-18T13:47:40;64.33;52.05;86.34;;
72276;Laerm;61204;49.980;8.358;2023-02-18T13:52:48;63.45;51.42;84.83;;
72276;Laerm;61204;49.980;8.358;2023-02-18T13:55:25;58.51;51.76;73.09;;
72276;Laerm;61204;49.980;8.358;2023-02-18T13:57:54;55.93;50.99;64.55;;
72276;Laerm;61204;49.980;8.358;2023-02-18T14:00:25;55.00;50.24;64.20;;
72276;Laerm;61204;49.980;8.358;2023-02-18T14:03:16;54.72;50.00;66.21;;
72276;Laerm;61204;49.980;8.358;2023-02-18T14:05:46;56.58;50.89;71.22;;
72276;Laerm;61204;49.980;8.358;2023-02-18T14:08:35;58.27;50.94;75.70;;
72276;Laerm;61204;49.980;8.358;2023-02-18T14:13:54;58.81;50.37;78.79;;
72276;Laerm;61204;49.980;8.358;2023-02-18T14:17:33;62.67;50.96;85.42;;
72276;Laerm;61204;49.980;8.358;2023-02-18T14:27:40;63.50;50.96;81.89;;
72276;Laerm;61204;49.980;8.358;2023-02-18T14:32:43;58.98;50.42;78.36;;
72276;Laerm;61204;49.980;8.358;2023-02-18T14:35:37;60.41;51.11;80.34;;
72276;Laerm;61204;49.980;8.358;2023-02-18T14:50:32;61.63;50.15;78.34;;
72276;Laerm;61204;49.980;8.358;2023-02-18T14:53:22;55.81;49.28;76.57;;
72276;Laerm;61204;49.980;8.358;2023-02-18T14:55:56;57.68;49.39;75.84;;
72276;Laerm;61204;49.980;8.358;2023-02-18T14:58:38;60.99;50.50;85.65;;
72276;Laerm;61204;49.980;8.358;2023-02-18T15:03:41;62.86;50.19;82.91;;
72276;Laerm;61204;49.980;8.358;2023-02-18T15:06:34;62.20;50.93;84.02;;
72276;Laerm;61204;49.980;8.358;2023-02-18T15:09:22;61.35;49.73;80.80;;
72276;Laerm;61204;49.980;8.358;2023-02-18T15:11:58;57.41;50.64;77.17;;
72276;Laerm;61204;49.980;8.358;2023-02-18T15:14:38;57.68;50.96;73.09;;
72276;Laerm;61204;49.980;8.358;2023-02-18T15:17:10;57.84;50.68;77.23;;
72276;Laerm;61204;49.980;8.358;2023-02-18T15:19:43;58.55;49.75;79.81;;
72276;Laerm;61204;49.980;8.358;2023-02-18T15:22:22;56.55;51.52;72.05;;
72276;Laerm;61204;49.980;8.358;2023-02-18T15:24:51;59.92;51.28;78.68;;
72276;Laerm;61204;49.980;8.358;2023-02-18T15:27:22;58.39;51.04;74.88;;
72276;Laerm;61204;49.980;8.358;2023-02-18T15:32:54;59.71;50.51;81.77;;
72276;Laerm;61204;49.980;8.358;2023-02-18T15:35:26;55.85;50.94;67.76;;
72276;Laerm;61204;49.980;8.358;2023-02-18T15:37:57;56.95;50.51;76.20;;
72276;Laerm;61204;49.980;8.358;2023-02-18T15:40:29;58.53;50.54;77.60;;
72276;Laerm;61204;49.980;8.358;2023-02-18T15:42:58;56.91;50.71;73.81;;
72276;Laerm;61204;49.980;8.358;2023-02-18T15:45:39;58.81;49.40;79.41;;
72276;Laerm;61204;49.980;8.358;2023-02-18T15:48:36;58.12;49.72;78.47;;
72276;Laerm;61204;49.980;8.358;2023-02-18T15:51:10;60.10;50.16;79.31;;
72276;Laerm;61204;49.980;8.358;2023-02-18T15:53:39;55.32;50.67;67.91;;
72276;Laerm;61204;49.980;8.358;2023-02-18T15:56:09;59.13;51.71;77.95;;
72276;Laerm;61204;49.980;8.358;2023-02-18T15:58:38;57.12;49.78;75.55;;
72276;Laerm;61204;49.980;8.358;2023-02-18T16:01:21;57.19;51.82;74.59;;
72276;Laerm;61204;49.980;8.358;2023-02-18T16:03:54;59.60;50.79;80.60;;
72276;Laerm;61204;49.980;8.358;2023-02-18T16:06:34;56.47;51.03;67.24;;
72276;Laerm;61204;49.980;8.358;2023-02-18T16:11:58;58.59;50.81;78.04;;
72276;Laerm;61204;49.980;8.358;2023-02-18T16:14:33;56.53;51.12;68.35;;
72276;Laerm;61204;49.980;8.358;2023-02-18T16:28:24;57.50;50.95;75.59;;
72276;Laerm;61204;49.980;8.358;2023-02-18T16:30:52;60.03;50.46;79.28;;
72276;Laerm;61204;49.980;8.358;2023-02-18T16:33:18;57.70;49.10;72.32;;
72276;Laerm;61204;49.980;8.358;2023-02-18T16:35:44;59.02;51.11;77.26;;
72276;Laerm;61204;49.980;8.358;2023-02-18T16:38:16;56.31;49.39;76.03;;
72276;Laerm;61204;49.980;8.358;2023-02-18T16:40:43;54.96;50.56;67.13;;
72276;Laerm;61204;49.980;8.358;2023-02-18T16:43:15;57.43;50.43;73.14;;